createdAt,value
2022-11-14T00:01:14.481Z,59.40
2022-11-14T00:04:03.844Z,64.20
2022-11-14T00:06:53.046Z,60.90
2022-11-14T00:09:43.511Z,57.10
2022-11-14T00:12:33.386Z,63.50
2022-11-14T00:15:22.731Z,59.00
2022-11-14T00:18:12.130Z,67.30
2022-11-14T00:21:01.717Z,61.70
2022-11-14T00:23:51.383Z,57.10
2022-11-14T00:26:40.649Z,55.30
2022-11-14T00:29:30.377Z,57.90
2022-11-14T00:32:20.370Z,57.90
2022-11-14T00:35:10.321Z,62.00
2022-11-14T00:37:59.354Z,52.10
2022-11-14T00:40:48.485Z,57.30
2022-11-14T00:43:37.797Z,51.70
2022-11-14T00:46:28.763Z,53.60
2022-11-14T00:49:18.470Z,52.10
2022-11-14T00:52:08.088Z,51.10
2022-11-14T00:54:58.026Z,50.40
2022-11-14T00:57:47.404Z,48.80
2022-11-14T01:00:36.639Z,43.80
2022-11-14T01:03:26.548Z,45.80
2022-11-14T01:06:16.840Z,44.60
2022-11-14T01:09:06.965Z,39.20
2022-11-14T01:11:56.532Z,44.20
2022-11-14T01:14:46.279Z,43.60
2022-11-14T01:17:35.274Z,36.10
2022-11-14T01:20:24.611Z,42.70
2022-11-14T01:23:15.114Z,43.10
2022-11-14T01:26:05.365Z,41.90
2022-11-14T01:28:54.869Z,43.60
2022-11-14T01:31:45.590Z,38.50
2022-11-14T01:34:34.699Z,39.10
2022-11-14T01:37:23.897Z,37.10
2022-11-14T01:40:13.874Z,36.10
2022-11-14T01:43:13.558Z,35.30
2022-11-14T01:46:04.576Z,35.10
2022-11-14T01:48:55.305Z,34.20
2022-11-14T01:51:46.725Z,30.00
2022-11-14T01:54:37.322Z,28.50
2022-11-14T01:57:28.662Z,27.40
2022-11-14T02:00:18.315Z,27.70
2022-11-14T02:03:07.891Z,28.90
2022-11-14T02:05:58.045Z,26.10
2022-11-14T02:08:47.450Z,27.30
2022-11-14T02:11:39.586Z,28.80
2022-11-14T02:14:29.467Z,29.10
2022-11-14T02:17:29.652Z,30.70
2022-11-14T02:20:21.931Z,25.40
2022-11-14T02:23:11.301Z,27.90
2022-11-14T02:26:00.893Z,28.50
2022-11-14T02:28:51.478Z,26.20
2022-11-14T02:31:41.251Z,28.60
2022-11-14T02:34:31.438Z,30.30
2022-11-14T02:37:20.664Z,27.80
2022-11-14T02:40:11.671Z,24.80
2022-11-14T02:43:01.156Z,26.90
2022-11-14T02:45:50.393Z,26.70
2022-11-14T02:48:39.426Z,23.60
2022-11-14T02:51:28.935Z,28.00
2022-11-14T02:54:18.221Z,24.70
2022-11-14T02:57:07.729Z,24.10
2022-11-14T02:59:57.027Z,26.40
2022-11-14T03:02:46.167Z,28.10
2022-11-14T03:05:35.019Z,22.60
2022-11-14T03:08:23.996Z,22.80
2022-11-14T03:11:13.318Z,25.40
2022-11-14T03:14:02.690Z,22.10
2022-11-14T03:16:51.374Z,25.00
2022-11-14T03:19:40.704Z,22.10
2022-11-14T03:22:30.320Z,23.40
2022-11-14T03:25:19.807Z,21.50
2022-11-14T03:28:09.064Z,22.40
2022-11-14T03:30:59.169Z,23.10
2022-11-14T03:33:48.002Z,27.00
2022-11-14T03:36:37.797Z,23.30
2022-11-14T03:39:27.987Z,22.60
2022-11-14T03:42:17.419Z,21.80
2022-11-14T03:45:07.783Z,26.20
2022-11-14T03:47:57.323Z,21.20
2022-11-14T03:50:46.622Z,22.10
2022-11-14T03:53:36.058Z,22.30
2022-11-14T03:56:25.729Z,21.80
2022-11-14T03:59:15.096Z,24.10
2022-11-14T04:02:04.467Z,22.60
2022-11-14T04:04:53.734Z,21.70
2022-11-14T04:07:42.805Z,21.10
2022-11-14T04:10:31.960Z,21.60
2022-11-14T04:13:20.741Z,19.40
2022-11-14T04:16:09.988Z,17.10
2022-11-14T04:18:59.253Z,18.60
2022-11-14T04:21:48.970Z,18.40
2022-11-14T04:24:37.991Z,16.60
2022-11-14T04:27:27.377Z,17.30
2022-11-14T04:30:17.027Z,19.20
2022-11-14T04:33:07.433Z,17.90
2022-11-14T04:35:56.804Z,25.50
2022-11-14T04:38:46.479Z,20.70
2022-11-14T04:41:35.698Z,17.90
2022-11-14T04:44:25.229Z,19.90
2022-11-14T04:47:14.280Z,19.80
2022-11-14T04:50:03.862Z,19.40
2022-11-14T04:52:54.660Z,19.70
2022-11-14T04:55:45.205Z,18.00
2022-11-14T04:58:34.347Z,19.60
2022-11-14T05:01:23.719Z,18.40
2022-11-14T05:04:13.268Z,22.00
2022-11-14T05:07:02.493Z,21.60
2022-11-14T05:09:51.597Z,20.40
2022-11-14T05:12:40.922Z,21.10
2022-11-14T05:15:29.836Z,21.70
2022-11-14T05:18:19.302Z,22.60
2022-11-14T05:21:08.580Z,20.30
2022-11-14T05:23:58.140Z,17.50
2022-11-14T05:26:47.511Z,23.70
2022-11-14T05:29:37.058Z,21.90
2022-11-14T05:32:26.625Z,23.30
2022-11-14T05:35:16.130Z,22.80
2022-11-14T05:38:05.608Z,23.30
2022-11-14T05:40:55.382Z,26.30
2022-11-14T05:43:44.714Z,22.70
2022-11-14T05:46:34.089Z,22.00
2022-11-14T05:49:24.213Z,27.80
2022-11-14T05:52:14.310Z,23.80
2022-11-14T05:55:04.077Z,23.30
2022-11-14T05:57:53.297Z,24.80
2022-11-14T06:00:50.737Z,26.30
2022-11-14T06:03:43.615Z,23.70
2022-11-14T06:06:33.227Z,25.70
2022-11-14T06:09:22.496Z,25.30
2022-11-14T06:12:11.636Z,22.80
2022-11-14T06:15:00.894Z,24.10
2022-11-14T06:17:49.995Z,23.10
2022-11-14T06:20:39.091Z,25.80
2022-11-14T06:23:28.434Z,24.30
2022-11-14T06:26:21.133Z,24.90
2022-11-14T06:29:10.970Z,22.60
2022-11-14T06:32:00.888Z,23.80
2022-11-14T06:34:50.517Z,22.60
2022-11-14T06:37:39.779Z,25.60
2022-11-14T06:40:29.310Z,22.30
2022-11-14T06:43:18.153Z,21.70
2022-11-14T06:46:08.407Z,21.30
2022-11-14T06:48:57.728Z,22.10
2022-11-14T06:51:47.214Z,20.50
2022-11-14T06:54:36.823Z,19.20
2022-11-14T06:57:26.047Z,24.10
2022-11-14T07:00:16.784Z,21.70
2022-11-14T07:03:05.870Z,24.00
2022-11-14T07:05:55.178Z,24.60
2022-11-14T07:08:44.693Z,21.50
2022-11-14T07:11:36.416Z,21.30
2022-11-14T07:14:26.299Z,19.40
2022-11-14T07:17:15.358Z,18.20
2022-11-14T07:20:05.429Z,19.00
2022-11-14T07:22:54.555Z,21.80
2022-11-14T07:25:43.936Z,19.10
2022-11-14T07:28:33.594Z,21.80
2022-11-14T07:31:23.575Z,23.00
2022-11-14T07:34:13.986Z,24.00
2022-11-14T07:37:03.613Z,25.30
2022-11-14T07:39:52.761Z,18.60
2022-11-14T07:42:41.947Z,21.30
2022-11-14T07:45:31.409Z,20.10
2022-11-14T07:48:22.235Z,22.00
2022-11-14T07:51:17.062Z,21.20
2022-11-14T07:54:06.697Z,26.30
2022-11-14T07:56:56.824Z,20.70
2022-11-14T07:59:46.417Z,22.80
2022-11-14T08:02:35.414Z,22.80
2022-11-14T08:05:24.691Z,21.00
2022-11-14T08:08:14.058Z,21.20
2022-11-14T08:11:03.838Z,20.80
2022-11-14T08:13:52.792Z,18.90
2022-11-14T08:16:42.372Z,23.60
2022-11-14T08:19:31.222Z,21.20
2022-11-14T08:22:20.965Z,18.70
2022-11-14T08:25:10.705Z,20.60
2022-11-14T08:28:03.176Z,23.50
2022-11-14T08:30:52.198Z,21.80
2022-11-14T08:33:42.075Z,18.70
2022-11-14T08:36:30.943Z,19.00
2022-11-14T08:39:21.327Z,22.80
2022-11-14T08:42:10.496Z,18.70
2022-11-14T08:44:59.759Z,20.60
2022-11-14T09:01:22.957Z,28.50
2022-11-14T09:04:12.220Z,25.50
2022-11-14T09:07:01.950Z,24.60
2022-11-14T09:09:51.114Z,23.50
2022-11-14T09:12:40.741Z,25.50
2022-11-14T09:15:30.261Z,22.70
2022-11-14T09:18:20.486Z,21.20
2022-11-14T09:21:10.127Z,22.80
2022-11-14T09:24:01.806Z,21.50
2022-11-14T09:26:56.574Z,23.70
2022-11-14T09:29:46.693Z,23.70
2022-11-14T09:32:36.110Z,23.10
2022-11-14T09:35:25.172Z,24.00
2022-11-14T09:38:15.050Z,25.70
2022-11-14T09:41:11.383Z,22.40
2022-11-14T09:44:19.140Z,24.50
2022-11-14T09:47:16.629Z,22.80
2022-11-14T09:50:13.084Z,26.90
2022-11-14T09:53:04.867Z,23.50
2022-11-14T09:55:54.090Z,26.00
2022-11-14T09:58:44.192Z,23.40
2022-11-14T10:01:42.286Z,24.50
2022-11-14T10:04:38.159Z,20.00
2022-11-14T10:07:30.635Z,23.70
2022-11-14T10:10:25.282Z,25.60
2022-11-14T10:13:18.877Z,24.70
2022-11-14T10:16:12.684Z,22.20
2022-11-14T10:19:10.846Z,22.80
2022-11-14T10:22:10.658Z,21.70
2022-11-14T10:25:13.825Z,22.40
2022-11-14T10:38:45.350Z,22.80
2022-11-14T10:41:56.198Z,25.80
2022-11-14T10:44:50.709Z,23.80
2022-11-14T10:47:41.212Z,21.50
2022-11-14T10:50:35.238Z,22.20
2022-11-14T10:53:28.508Z,26.30
2022-11-14T10:56:17.710Z,29.50
2022-11-14T10:59:07.079Z,30.20
2022-11-14T11:01:57.219Z,28.10
2022-11-14T11:04:46.736Z,24.20
2022-11-14T11:08:21.485Z,25.20
2022-11-14T11:11:33.107Z,28.70
2022-11-14T11:14:22.633Z,29.00
2022-11-14T11:17:20.833Z,26.90
2022-11-14T11:20:23.717Z,36.40
2022-11-14T11:23:18.788Z,32.50
2022-11-14T11:26:09.870Z,30.10
2022-11-14T11:29:10.068Z,32.40
2022-11-14T11:32:00.005Z,44.60
2022-11-14T11:34:49.493Z,33.90
2022-11-14T11:37:41.669Z,33.60
2022-11-14T11:40:31.358Z,32.30
2022-11-14T11:43:41.329Z,38.00
2022-11-14T11:46:33.397Z,40.00
2022-11-14T11:49:26.345Z,37.90
2022-11-14T11:52:19.114Z,37.60
2022-11-14T11:55:16.894Z,29.90
2022-11-14T11:58:08.147Z,28.70
2022-11-14T12:00:58.521Z,36.90
2022-11-14T12:03:49.480Z,35.40
2022-11-14T12:06:42.477Z,33.20
2022-11-14T12:10:03.652Z,35.90
2022-11-14T12:13:00.699Z,41.80
2022-11-14T12:15:55.425Z,33.60
2022-11-14T12:18:57.841Z,35.80
2022-11-14T12:22:02.200Z,32.90
2022-11-14T12:24:56.565Z,29.50
2022-11-14T12:27:59.326Z,27.00
2022-11-14T12:30:49.894Z,33.30
2022-11-14T12:33:40.661Z,28.20
2022-11-14T12:36:31.792Z,29.40
2022-11-14T12:39:25.598Z,27.30
2022-11-14T12:42:20.301Z,28.20
2022-11-14T12:45:38.393Z,28.80
2022-11-14T12:48:33.183Z,29.60
2022-11-14T12:51:47.642Z,33.80
2022-11-14T12:54:47.663Z,29.70
2022-11-14T12:57:51.080Z,31.60
2022-11-14T13:00:48.477Z,32.30
2022-11-14T13:03:48.745Z,29.40
2022-11-14T13:06:45.461Z,34.90
2022-11-14T13:09:43.151Z,30.90
2022-11-14T13:12:51.168Z,34.40
2022-11-14T13:16:07.569Z,34.00
2022-11-14T13:19:15.158Z,28.50
2022-11-14T13:22:36.383Z,28.70
2022-11-14T13:25:26.274Z,34.50
2022-11-14T13:28:32.526Z,35.20
2022-11-14T13:31:22.971Z,28.30
2022-11-14T13:34:34.305Z,33.00
2022-11-14T13:37:32.793Z,28.70
2022-11-14T13:40:26.760Z,27.80
2022-11-14T13:43:20.904Z,32.60
2022-11-14T13:49:12.517Z,28.30
2022-11-14T13:52:02.569Z,30.80
2022-11-14T13:54:52.145Z,31.10
2022-11-14T13:57:47.808Z,26.20
2022-11-14T14:00:49.306Z,28.30
2022-11-14T14:03:43.967Z,28.50
2022-11-14T14:06:41.881Z,24.50
2022-11-14T14:09:33.930Z,25.80
2022-11-14T14:12:40.832Z,24.80
2022-11-14T14:15:32.449Z,27.10
2022-11-14T14:18:28.443Z,26.40
2022-11-14T14:21:26.155Z,28.30
2022-11-14T14:24:20.153Z,26.70
2022-11-14T14:27:15.595Z,27.40
2022-11-14T14:30:09.076Z,29.40
2022-11-14T14:33:12.868Z,27.00
2022-11-14T14:36:02.242Z,25.80
2022-11-14T14:38:52.023Z,28.90
2022-11-14T14:41:42.318Z,28.20
2022-11-14T14:44:33.329Z,29.30
2022-11-14T14:47:34.148Z,35.40
2022-11-14T14:50:24.378Z,27.30
2022-11-14T14:53:21.207Z,33.40
2022-11-14T14:56:18.967Z,34.30
2022-11-14T14:59:21.072Z,37.50
2022-11-14T15:02:14.750Z,31.70
2022-11-14T15:05:04.934Z,30.70
2022-11-14T15:07:56.872Z,29.40
2022-11-14T15:10:46.293Z,31.50
2022-11-14T15:13:36.436Z,34.10
2022-11-14T15:16:26.388Z,34.70
2022-11-14T15:19:16.207Z,31.70
2022-11-14T15:22:06.556Z,32.50
2022-11-14T15:25:18.133Z,38.70
2022-11-14T15:28:15.033Z,27.20
2022-11-14T15:31:05.225Z,32.60
2022-11-14T15:34:05.052Z,34.40
2022-11-14T15:37:23.222Z,33.60
2022-11-14T15:40:24.398Z,36.20
2022-11-14T15:43:30.841Z,34.30
2022-11-14T15:46:28.973Z,32.00
2022-11-14T15:49:22.863Z,28.90
2022-11-14T15:52:18.650Z,29.10
2022-11-14T15:55:13.755Z,30.30
2022-11-14T16:01:15.422Z,37.30
2022-11-14T16:04:05.247Z,34.30
2022-11-14T16:06:54.436Z,32.50
2022-11-14T16:09:44.381Z,35.30
2022-11-14T16:12:33.895Z,31.00
2022-11-14T16:15:23.321Z,29.90
2022-11-14T16:18:13.257Z,33.20
2022-11-14T16:21:02.885Z,32.00
2022-11-14T16:23:51.788Z,34.30
2022-11-14T16:26:41.497Z,33.90
2022-11-14T16:29:30.520Z,33.20
2022-11-14T16:32:20.354Z,33.90
2022-11-14T16:35:13.463Z,36.90
2022-11-14T16:38:03.513Z,30.30
2022-11-14T16:40:53.535Z,33.10
2022-11-14T16:43:43.821Z,31.90
2022-11-14T16:46:32.888Z,33.80
2022-11-14T16:49:22.806Z,36.20
2022-11-14T16:52:13.132Z,35.60
2022-11-14T16:55:03.152Z,33.00
2022-11-14T16:57:52.313Z,39.30
2022-11-14T17:00:45.206Z,37.30
2022-11-14T17:03:34.427Z,34.20
2022-11-14T17:06:24.273Z,35.20
2022-11-14T17:09:14.634Z,34.40
2022-11-14T17:12:04.411Z,34.80
2022-11-14T17:14:54.879Z,34.80
2022-11-14T17:17:50.444Z,35.10
2022-11-14T17:20:39.932Z,37.00
2022-11-14T17:23:29.951Z,41.80
2022-11-14T17:26:19.165Z,36.90
2022-11-14T17:29:08.846Z,36.70
2022-11-14T17:31:58.073Z,33.50
2022-11-14T17:34:47.546Z,33.80
2022-11-14T17:37:36.710Z,32.80
2022-11-14T17:40:27.010Z,35.50
2022-11-14T17:43:17.393Z,37.90
2022-11-14T17:46:11.205Z,38.30
2022-11-14T17:49:04.834Z,42.40
2022-11-14T17:51:54.126Z,37.90
2022-11-14T17:54:42.960Z,37.50
2022-11-14T17:57:32.640Z,32.60
2022-11-14T18:00:21.895Z,37.90
2022-11-14T18:03:11.776Z,41.30
2022-11-14T18:06:07.355Z,40.90
2022-11-14T18:08:57.794Z,39.00
2022-11-14T18:11:47.039Z,37.70
2022-11-14T18:14:37.145Z,39.50
2022-11-14T18:17:26.559Z,39.30
2022-11-14T18:20:15.786Z,36.80
2022-11-14T18:23:05.153Z,36.70
2022-11-14T18:25:54.706Z,33.80
2022-11-14T18:28:46.812Z,41.80
2022-11-14T18:31:37.155Z,36.30
2022-11-14T18:34:27.036Z,39.90
2022-11-14T18:37:16.624Z,38.00
2022-11-14T18:40:06.328Z,36.90
2022-11-14T18:42:56.890Z,40.90
2022-11-14T18:45:46.150Z,39.00
2022-11-14T18:48:36.142Z,39.10
2022-11-14T18:51:26.390Z,45.30
2022-11-14T18:54:17.843Z,38.40
2022-11-14T18:57:07.526Z,41.00
2022-11-14T18:59:57.263Z,40.30
2022-11-14T19:02:50.177Z,39.40
2022-11-14T19:05:40.040Z,42.70
2022-11-14T19:08:29.617Z,41.00
2022-11-14T19:11:37.203Z,43.80
2022-11-14T19:14:26.248Z,43.40
2022-11-14T19:17:18.983Z,42.40
2022-11-14T19:20:14.155Z,51.40
2022-11-14T19:23:04.370Z,51.60
2022-11-14T19:25:53.073Z,46.90
2022-11-14T19:28:43.153Z,44.80
2022-11-14T19:31:33.276Z,48.10
2022-11-14T19:34:22.907Z,50.90
2022-11-14T19:37:11.982Z,45.60
2022-11-14T19:40:01.767Z,43.40
2022-11-14T19:42:54.170Z,48.50
2022-11-14T19:45:43.678Z,44.80
2022-11-14T19:48:33.156Z,45.70
2022-11-14T19:51:23.470Z,48.00
2022-11-14T19:54:12.729Z,50.60
2022-11-14T19:57:02.195Z,49.70
2022-11-14T19:59:52.577Z,48.20
2022-11-14T20:02:42.197Z,51.90
2022-11-14T20:05:33.090Z,54.50
2022-11-14T20:08:23.042Z,48.30
2022-11-14T20:11:12.433Z,48.20
2022-11-14T20:14:03.131Z,49.10
2022-11-14T20:16:52.197Z,50.40
2022-11-14T20:19:41.282Z,47.80
2022-11-14T20:22:31.083Z,49.20
2022-11-14T20:25:20.503Z,52.20
2022-11-14T20:28:12.219Z,53.20
2022-11-14T20:31:03.430Z,53.40
2022-11-14T20:33:53.445Z,53.40
2022-11-14T20:37:09.452Z,54.60
2022-11-14T20:39:53.145Z,53.30
2022-11-14T20:42:42.405Z,62.30
2022-11-14T20:45:32.104Z,53.50
2022-11-14T20:48:21.417Z,57.70
2022-11-14T20:51:12.011Z,48.60
2022-11-14T20:54:01.522Z,56.00
2022-11-14T20:56:51.200Z,49.60
2022-11-14T20:59:40.267Z,54.60
2022-11-14T21:02:29.769Z,56.20
2022-11-14T21:05:19.259Z,54.70
2022-11-14T21:08:08.689Z,52.20
2022-11-14T21:11:01.189Z,51.00
2022-11-14T21:13:59.822Z,56.90
2022-11-14T21:16:48.771Z,48.50
2022-11-14T21:19:38.038Z,50.90
2022-11-14T21:22:27.291Z,47.60
2022-11-14T21:25:16.879Z,49.20
2022-11-14T21:28:06.185Z,48.30
2022-11-14T21:30:55.728Z,47.10
2022-11-14T21:33:45.508Z,45.20
2022-11-14T21:36:44.951Z,47.30
2022-11-14T21:39:35.915Z,46.50
2022-11-14T21:42:25.316Z,50.10
2022-11-14T21:45:16.088Z,49.80
2022-11-14T21:48:06.008Z,42.50
2022-11-14T21:50:55.344Z,45.60
2022-11-14T21:53:45.843Z,44.00
2022-11-14T21:56:35.947Z,48.50
2022-11-14T21:59:27.672Z,45.90
2022-11-14T22:02:34.534Z,42.50
2022-11-14T22:05:23.823Z,39.30
2022-11-14T22:08:12.865Z,40.40
2022-11-14T22:11:04.599Z,40.70
2022-11-14T22:13:53.548Z,41.20
2022-11-14T22:16:42.709Z,40.80
2022-11-14T22:19:32.452Z,37.30
2022-11-14T22:22:21.829Z,44.10
2022-11-14T22:25:11.689Z,38.50
2022-11-14T22:28:00.813Z,42.70
2022-11-14T22:30:49.967Z,39.90
2022-11-14T22:33:44.098Z,43.40
2022-11-14T22:36:36.705Z,43.10
2022-11-14T22:39:26.242Z,39.30
2022-11-14T22:42:15.435Z,41.30
2022-11-14T22:45:06.159Z,45.40
2022-11-14T22:47:58.992Z,39.30
2022-11-14T22:50:48.060Z,39.10
2022-11-14T22:53:37.974Z,45.40
2022-11-14T22:56:28.236Z,39.60
2022-11-14T22:59:17.546Z,35.20
2022-11-14T23:02:06.862Z,38.90
2022-11-14T23:04:56.233Z,36.20
2022-11-14T23:07:45.399Z,39.20
2022-11-14T23:10:35.942Z,31.30
2022-11-14T23:13:24.954Z,34.50
2022-11-14T23:16:15.055Z,33.80
2022-11-14T23:19:05.537Z,36.40
2022-11-14T23:21:55.017Z,34.20
2022-11-14T23:24:44.591Z,34.70
2022-11-14T23:27:34.673Z,32.80
2022-11-14T23:30:23.882Z,30.30
2022-11-14T23:33:13.109Z,32.40
2022-11-14T23:36:02.921Z,32.70
2022-11-14T23:38:52.810Z,33.90
2022-11-14T23:41:42.037Z,40.50
2022-11-14T23:44:30.997Z,35.00
2022-11-14T23:47:20.464Z,33.20
2022-11-14T23:50:10.613Z,32.00
2022-11-14T23:52:59.621Z,31.60
2022-11-14T23:55:55.124Z,32.00
2022-11-14T23:58:44.502Z,30.50
